Time,TemperatureF,DewpointF,PressureIn,WindDirection,WindDirectionDegrees,WindSpeedMPH,WindSpeedGustMPH,Humidity,HourlyPrecipIn,Conditions,Clouds,dailyrainin,SoftwareType,DateUTC
2013-08-09 00:01:00,53.0,37.0,-100.00,NE,34,2.0,4.0,55,-99.99,,,-99.99,,2013-08-09 07:01:00,
2013-08-09 00:12:00,53.0,38.0,-100.00,NNE,31,2.0,4.0,57,-99.99,,,-99.99,,2013-08-09 07:12:00,
2013-08-09 00:21:00,53.0,38.0,-100.00,NNE,31,2.0,4.0,57,-99.99,,,-99.99,,2013-08-09 07:21:00,
2013-08-09 00:33:00,53.0,38.0,-100.00,NNE,31,2.0,4.0,57,-99.99,,,-99.99,,2013-08-09 07:33:00,
2013-08-09 00:43:00,52.0,37.0,-100.00,North,7,2.0,3.0,57,-99.99,,,-99.99,,2013-08-09 07:43:00,
2013-08-09 00:53:00,52.0,37.0,-100.00,North,7,2.0,3.0,57,-99.99,,,-99.99,,2013-08-09 07:53:00,
2013-08-09 01:02:00,53.0,38.0,-100.00,NNE,23,1.0,2.0,56,-99.99,,,-99.99,,2013-08-09 08:02:00,
2013-08-09 01:12:00,53.0,38.0,-100.00,NNE,23,1.0,2.0,56,-99.99,,,-99.99,,2013-08-09 08:12:00,
2013-08-09 01:21:00,53.0,38.0,-100.00,NNE,23,1.0,2.0,56,-99.99,,,-99.99,,2013-08-09 08:21:00,
2013-08-09 01:43:00,51.0,38.0,-100.00,NNE,31,3.0,4.0,60,-99.99,,,-99.99,,2013-08-09 08:43:00,
2013-08-09 02:02:00,51.0,38.0,-100.00,NE,38,3.0,5.0,62,-99.99,,,-99.99,,2013-08-09 09:02:00,
2013-08-09 02:12:00,51.0,38.0,-100.00,NE,38,3.0,5.0,62,-99.99,,,-99.99,,2013-08-09 09:12:00,
2013-08-09 02:22:00,50.0,38.0,-100.00,NE,35,3.0,5.0,63,-99.99,,,-99.99,,2013-08-09 09:22:00,
2013-08-09 02:32:00,50.0,38.0,-100.00,NE,35,3.0,5.0,63,-99.99,,,-99.99,,2013-08-09 09:32:00,
2013-08-09 02:43:00,50.0,38.0,-100.00,NE,41,3.0,4.0,64,-99.99,,,-99.99,,2013-08-09 09:43:00,
2013-08-09 02:52:00,50.0,38.0,-100.00,NE,41,3.0,4.0,64,-99.99,,,-99.99,,2013-08-09 09:52:00,
2013-08-09 03:12:00,49.0,37.0,-100.00,NE,48,3.0,4.0,64,-99.99,,,-99.99,,2013-08-09 10:12:00,
2013-08-09 03:22:00,49.0,37.0,-100.00,NE,56,2.0,6.0,64,-99.99,,,-99.99,,2013-08-09 10:22:00,
2013-08-09 03:32:00,49.0,37.0,-100.00,NE,56,2.0,6.0,64,-99.99,,,-99.99,,2013-08-09 10:32:00,
2013-08-09 03:43:00,49.0,37.0,-100.00,SE,131,1.0,3.0,63,-99.99,,,-99.99,,2013-08-09 10:43:00,
2013-08-09 03:53:00,49.0,37.0,-100.00,SE,131,1.0,3.0,63,-99.99,,,-99.99,,2013-08-09 10:53:00,
2013-08-09 04:01:00,49.0,37.0,-100.00,SE,131,1.0,3.0,63,-99.99,,,-99.99,,2013-08-09 11:01:00,
2013-08-09 04:22:00,47.0,36.0,-100.00,NNE,21,2.0,4.0,66,-99.99,,,-99.99,,2013-08-09 11:22:00,
2013-08-09 04:33:00,47.0,36.0,-100.00,NNE,21,2.0,4.0,66,-99.99,,,-99.99,,2013-08-09 11:33:00,
2013-08-09 04:42:00,47.0,36.0,-100.00,NNE,28,5.0,7.0,65,-99.99,,,-99.99,,2013-08-09 11:42:00,
2013-08-09 04:53:00,47.0,36.0,-100.00,NNE,28,5.0,7.0,65,-99.99,,,-99.99,,2013-08-09 11:53:00,
2013-08-09 05:12:00,48.0,36.0,-100.00,NNE,32,3.0,5.0,64,-99.99,,,-99.99,,2013-08-09 12:12:00,
2013-08-09 05:22:00,48.0,36.0,-100.00,NNE,32,3.0,5.0,64,-99.99,,,-99.99,,2013-08-09 12:22:00,
2013-08-09 05:43:00,49.0,37.0,-100.00,NNE,31,3.0,5.0,62,-99.99,,,-99.99,,2013-08-09 12:43:00,
2013-08-09 05:52:00,49.0,37.0,-100.00,NNE,31,3.0,5.0,62,-99.99,,,-99.99,,2013-08-09 12:52:00,
2013-08-09 06:01:00,49.0,36.0,-100.00,NE,41,1.0,3.0,61,-99.99,,,-99.99,,2013-08-09 13:01:00,
2013-08-09 06:11:00,49.0,36.0,-100.00,NE,41,1.0,3.0,61,-99.99,,,-99.99,,2013-08-09 13:11:00,
2013-08-09 06:23:00,49.0,36.0,-100.00,NE,41,1.0,3.0,61,-99.99,,,-99.99,,2013-08-09 13:23:00,
2013-08-09 06:43:00,48.0,36.0,-100.00,ENE,66,2.0,4.0,64,-99.99,,,-99.99,,2013-08-09 13:43:00,
2013-08-09 06:52:00,48.0,37.0,-100.00,NE,44,0.0,3.0,65,-99.99,,,-99.99,,2013-08-09 13:52:00,
2013-08-09 07:02:00,48.0,37.0,-100.00,NE,44,0.0,3.0,65,-99.99,,,-99.99,,2013-08-09 14:02:00,
2013-08-09 07:11:00,48.0,37.0,-100.00,NE,44,0.0,3.0,65,-99.99,,,-99.99,,2013-08-09 14:11:00,
2013-08-09 07:22:00,48.0,36.0,-100.00,NE,34,1.0,2.0,64,-99.99,,,-99.99,,2013-08-09 14:22:00,
2013-08-09 07:33:00,48.0,36.0,-100.00,NE,34,1.0,2.0,64,-99.99,,,-99.99,,2013-08-09 14:33:00,
2013-08-09 07:43:00,50.0,39.0,-100.00,NE,45,1.0,3.0,65,-99.99,,,-99.99,,2013-08-09 14:43:00,
2013-08-09 07:53:00,50.0,39.0,-100.00,NE,35,3.0,5.0,66,-99.99,,,-99.99,,2013-08-09 14:53:00,
2013-08-09 08:01:00,50.0,39.0,-100.00,NE,35,3.0,5.0,66,-99.99,,,-99.99,,2013-08-09 15:01:00,
2013-08-09 08:11:00,51.0,39.0,-100.00,SE,128,0.0,3.0,64,-99.99,,,-99.99,,2013-08-09 15:11:00,
2013-08-09 08:22:00,51.0,39.0,-100.00,SE,128,0.0,3.0,64,-99.99,,,-99.99,,2013-08-09 15:22:00,
2013-08-09 08:32:00,51.0,39.0,-100.00,SE,128,0.0,3.0,64,-99.99,,,-99.99,,2013-08-09 15:32:00,
2013-08-09 08:43:00,55.0,38.0,-100.00,NE,34,1.0,3.0,53,-99.99,,,-99.99,,2013-08-09 15:43:00,
2013-08-09 08:53:00,55.0,38.0,-100.00,NE,34,1.0,3.0,53,-99.99,,,-99.99,,2013-08-09 15:53:00,
2013-08-09 09:01:00,55.0,38.0,-100.00,NE,34,1.0,3.0,53,-99.99,,,-99.99,,2013-08-09 16:01:00,
2013-08-09 09:22:00,59.0,38.0,-100.00,NW,305,1.0,4.0,46,-99.99,,,-99.99,,2013-08-09 16:22:00,
2013-08-09 09:32:00,59.0,38.0,-100.00,NW,305,1.0,4.0,46,-99.99,,,-99.99,,2013-08-09 16:32:00,
2013-08-09 09:43:00,61.0,39.0,-100.00,South,181,1.0,4.0,44,-99.99,,,-99.99,,2013-08-09 16:43:00,
2013-08-09 10:02:00,61.0,39.0,-100.00,SW,219,2.0,5.0,44,-99.99,,,-99.99,,2013-08-09 17:02:00,
2013-08-09 10:11:00,61.0,39.0,-100.00,SW,219,2.0,5.0,44,-99.99,,,-99.99,,2013-08-09 17:11:00,
2013-08-09 10:22:00,62.0,39.0,-100.00,SSE,160,1.0,4.0,42,-99.99,,,-99.99,,2013-08-09 17:22:00,
2013-08-09 10:33:00,62.0,39.0,-100.00,SSE,160,1.0,4.0,42,-99.99,,,-99.99,,2013-08-09 17:33:00,
2013-08-09 10:43:00,62.0,40.0,-100.00,SW,236,5.0,8.0,44,-99.99,,,-99.99,,2013-08-09 17:43:00,
2013-08-09 10:52:00,62.0,40.0,-100.00,SW,236,5.0,8.0,44,-99.99,,,-99.99,,2013-08-09 17:52:00,
2013-08-09 11:01:00,63.0,39.0,-100.00,West,278,3.0,7.0,41,-99.99,,,-99.99,,2013-08-09 18:01:00,
2013-08-09 11:11:00,63.0,39.0,-100.00,West,278,3.0,7.0,41,-99.99,,,-99.99,,2013-08-09 18:11:00,
2013-08-09 11:22:00,65.0,39.0,-100.00,SSW,198,2.0,5.0,39,-99.99,,,-99.99,,2013-08-09 18:22:00,
2013-08-09 11:32:00,65.0,39.0,-100.00,SSW,198,2.0,5.0,39,-99.99,,,-99.99,,2013-08-09 18:32:00,
2013-08-09 11:43:00,64.0,42.0,-100.00,SW,236,7.0,11.0,45,-99.99,,,-99.99,,2013-08-09 18:43:00,
2013-08-09 11:52:00,64.0,42.0,-100.00,SW,236,7.0,11.0,45,-99.99,,,-99.99,,2013-08-09 18:52:00,
2013-08-09 12:02:00,64.0,40.0,-100.00,WSW,243,7.0,13.0,42,-99.99,,,-99.99,,2013-08-09 19:02:00,
2013-08-09 12:11:00,64.0,40.0,-100.00,WSW,243,7.0,13.0,42,-99.99,,,-99.99,,2013-08-09 19:11:00,
2013-08-09 12:22:00,66.0,35.0,-100.00,WSW,243,7.0,12.0,32,-99.99,,,-99.99,,2013-08-09 19:22:00,
2013-08-09 12:32:00,66.0,35.0,-100.00,WSW,243,7.0,12.0,32,-99.99,,,-99.99,,2013-08-09 19:32:00,
2013-08-09 12:43:00,67.0,34.0,-100.00,WSW,253,5.0,10.0,29,-99.99,,,-99.99,,2013-08-09 19:43:00,
2013-08-09 12:52:00,67.0,34.0,-100.00,WSW,253,5.0,10.0,29,-99.99,,,-99.99,,2013-08-09 19:52:00,
2013-08-09 13:02:00,67.0,34.0,-100.00,WSW,253,5.0,10.0,29,-99.99,,,-99.99,,2013-08-09 20:02:00,
2013-08-09 13:11:00,67.0,32.0,-100.00,SW,222,5.0,11.0,27,-99.99,,,-99.99,,2013-08-09 20:11:00,
2013-08-09 13:22:00,67.0,32.0,-100.00,SW,222,5.0,11.0,27,-99.99,,,-99.99,,2013-08-09 20:22:00,
2013-08-09 13:32:00,69.0,31.0,-100.00,SW,215,4.0,13.0,24,-99.99,,,-99.99,,2013-08-09 20:32:00,
2013-08-09 13:43:00,69.0,31.0,-100.00,SW,215,4.0,13.0,24,-99.99,,,-99.99,,2013-08-09 20:43:00,
2013-08-09 13:52:00,67.0,29.0,-100.00,SW,223,7.0,14.0,24,-99.99,,,-99.99,,2013-08-09 20:52:00,
2013-08-09 14:01:00,67.0,29.0,-100.00,SW,223,7.0,14.0,24,-99.99,,,-99.99,,2013-08-09 21:01:00,
2013-08-09 14:12:00,69.0,29.0,-100.00,WSW,244,7.0,13.0,22,-99.99,,,-99.99,,2013-08-09 21:12:00,
2013-08-09 14:22:00,69.0,29.0,-100.00,WSW,244,7.0,13.0,22,-99.99,,,-99.99,,2013-08-09 21:22:00,
2013-08-09 14:42:00,70.0,28.0,-100.00,SW,223,5.0,14.0,21,-99.99,,,-99.99,,2013-08-09 21:42:00,
2013-08-09 14:43:00,69.0,31.0,-100.00,West,264,7.0,13.0,24,-99.99,,,-99.99,,2013-08-09 21:43:00,
2013-08-09 14:52:00,70.0,29.0,-100.00,WSW,243,7.0,12.0,22,-99.99,,,-99.99,,2013-08-09 21:52:00,
2013-08-09 15:01:00,70.0,29.0,-100.00,WSW,243,7.0,12.0,22,-99.99,,,-99.99,,2013-08-09 22:01:00,
2013-08-09 15:11:00,70.0,28.0,-100.00,SW,223,5.0,14.0,21,-99.99,,,-99.99,,2013-08-09 22:11:00,
2013-08-09 15:22:00,70.0,28.0,-100.00,SW,223,5.0,14.0,21,-99.99,,,-99.99,,2013-08-09 22:22:00,
2013-08-09 15:32:00,70.0,28.0,-100.00,SW,223,5.0,14.0,21,-99.99,,,-99.99,,2013-08-09 22:32:00,
2013-08-09 15:52:00,70.0,34.0,-100.00,SW,216,9.0,17.0,26,-99.99,,,-99.99,,2013-08-09 22:52:00,
2013-08-09 16:01:00,70.0,34.0,-100.00,SW,216,9.0,17.0,26,-99.99,,,-99.99,,2013-08-09 23:01:00,
2013-08-09 16:11:00,70.0,34.0,-100.00,SW,216,9.0,17.0,26,-99.99,,,-99.99,,2013-08-09 23:11:00,
2013-08-09 16:43:00,69.0,36.0,-100.00,SW,222,9.0,19.0,30,-99.99,,,-99.99,,2013-08-09 23:43:00,
2013-08-09 16:52:00,69.0,36.0,-100.00,SW,222,9.0,19.0,30,-99.99,,,-99.99,,2013-08-09 23:52:00,
2013-08-09 17:01:00,69.0,37.0,-100.00,SSW,212,9.0,17.0,31,-99.99,,,-99.99,,2013-08-10 00:01:00,
2013-08-09 17:11:00,69.0,37.0,-100.00,SSW,212,9.0,17.0,31,-99.99,,,-99.99,,2013-08-10 00:11:00,
2013-08-09 17:22:00,69.0,36.0,-100.00,SW,215,9.0,26.0,30,-99.99,,,-99.99,,2013-08-10 00:22:00,
2013-08-09 17:33:00,69.0,36.0,-100.00,SW,215,9.0,26.0,30,-99.99,,,-99.99,,2013-08-10 00:33:00,
2013-08-09 17:43:00,69.0,39.0,-100.00,SSW,212,8.0,20.0,33,-99.99,,,-99.99,,2013-08-10 00:43:00,
2013-08-09 17:52:00,69.0,39.0,-100.00,SSW,212,8.0,20.0,33,-99.99,,,-99.99,,2013-08-10 00:52:00,
2013-08-09 18:01:00,67.0,40.0,-100.00,SW,215,8.0,22.0,37,-99.99,,,-99.99,,2013-08-10 01:01:00,
2013-08-09 18:11:00,67.0,40.0,-100.00,SW,215,8.0,22.0,37,-99.99,,,-99.99,,2013-08-10 01:11:00,
2013-08-09 18:21:00,67.0,40.0,-100.00,SW,215,8.0,17.0,37,-99.99,,,-99.99,,2013-08-10 01:21:00,
2013-08-09 18:32:00,67.0,40.0,-100.00,SW,215,8.0,17.0,37,-99.99,,,-99.99,,2013-08-10 01:32:00,
2013-08-09 18:42:00,67.0,39.0,-100.00,SSW,213,7.0,17.0,36,-99.99,,,-99.99,,2013-08-10 01:42:00,
2013-08-09 18:52:00,67.0,39.0,-100.00,SSW,213,7.0,17.0,36,-99.99,,,-99.99,,2013-08-10 01:52:00,
2013-08-09 19:03:00,66.0,39.0,-100.00,South,186,4.0,13.0,37,-99.99,,,-99.99,,2013-08-10 02:03:00,
2013-08-09 19:11:00,66.0,39.0,-100.00,South,186,4.0,13.0,37,-99.99,,,-99.99,,2013-08-10 02:11:00,
2013-08-09 19:21:00,65.0,38.0,-100.00,South,182,6.0,14.0,37,-99.99,,,-99.99,,2013-08-10 02:21:00,
2013-08-09 19:31:00,65.0,38.0,-100.00,South,182,6.0,14.0,37,-99.99,,,-99.99,,2013-08-10 02:31:00,
2013-08-09 19:42:00,65.0,38.0,-100.00,South,182,6.0,14.0,37,-99.99,,,-99.99,,2013-08-10 02:42:00,
2013-08-09 19:52:00,64.0,39.0,-100.00,SSW,203,5.0,14.0,39,-99.99,,,-99.99,,2013-08-10 02:52:00,
2013-08-09 20:01:00,64.0,39.0,-100.00,SSW,203,5.0,14.0,39,-99.99,,,-99.99,,2013-08-10 03:01:00,
2013-08-09 20:11:00,63.0,36.0,-100.00,South,191,4.0,9.0,37,-99.99,,,-99.99,,2013-08-10 03:11:00,
2013-08-09 20:21:00,63.0,36.0,-100.00,South,191,4.0,9.0,37,-99.99,,,-99.99,,2013-08-10 03:21:00,
2013-08-09 20:32:00,63.0,36.0,-100.00,South,191,4.0,9.0,37,-99.99,,,-99.99,,2013-08-10 03:32:00,
2013-08-09 21:01:00,59.0,35.0,-100.00,North,-999,-999.0,-999.0,40,-99.99,,,-99.99,,2013-08-10 04:01:00,
2013-08-09 21:12:00,59.0,35.0,-100.00,SSW,193,4.0,10.0,40,-99.99,,,-99.99,,2013-08-10 04:12:00,
2013-08-09 21:22:00,59.0,35.0,-100.00,SSW,193,4.0,10.0,40,-99.99,,,-99.99,,2013-08-10 04:22:00,
2013-08-09 21:32:00,58.0,34.0,-100.00,South,181,5.0,12.0,41,-99.99,,,-99.99,,2013-08-10 04:32:00,
2013-08-09 21:42:00,58.0,34.0,-100.00,South,181,5.0,12.0,41,-99.99,,,-99.99,,2013-08-10 04:42:00,
2013-08-09 21:53:00,58.0,34.0,-100.00,South,189,6.0,13.0,41,-99.99,,,-99.99,,2013-08-10 04:53:00,
2013-08-09 22:02:00,58.0,34.0,-100.00,South,189,6.0,13.0,41,-99.99,,,-99.99,,2013-08-10 05:02:00,
2013-08-09 22:11:00,57.0,34.0,-100.00,SSE,167,4.0,13.0,42,-99.99,,,-99.99,,2013-08-10 05:11:00,
2013-08-09 22:21:00,57.0,34.0,-100.00,SSE,167,4.0,13.0,42,-99.99,,,-99.99,,2013-08-10 05:21:00,
2013-08-09 22:42:00,57.0,34.0,-100.00,South,181,5.0,11.0,41,-99.99,,,-99.99,,2013-08-10 05:42:00,
2013-08-09 22:52:00,57.0,34.0,-100.00,SSE,152,3.0,9.0,41,-99.99,,,-99.99,,2013-08-10 05:52:00,
2013-08-09 23:02:00,57.0,34.0,-100.00,SSE,152,3.0,9.0,41,-99.99,,,-99.99,,2013-08-10 06:02:00,
2013-08-09 23:11:00,57.0,34.0,-100.00,SSE,152,3.0,9.0,41,-99.99,,,-99.99,,2013-08-10 06:11:00,
2013-08-09 23:22:00,57.0,34.0,-100.00,SSE,152,3.0,9.0,41,-99.99,,,-99.99,,2013-08-10 06:22:00,
2013-08-09 23:44:00,54.0,32.0,-100.00,ENE,61,3.0,7.0,43,-99.99,,,-99.99,,2013-08-10 06:44:00,
2013-08-09 23:53:00,54.0,32.0,-100.00,ENE,61,3.0,7.0,43,-99.99,,,-99.99,,2013-08-10 06:53:00,